createdAt,value
2023-02-04T00:01:58.681Z,1.67
2023-02-04T00:04:25.086Z,1.07
2023-02-04T00:06:51.403Z,0.60
2023-02-04T00:09:17.714Z,2.25
2023-02-04T00:11:45.093Z,1.75
2023-02-04T00:14:11.699Z,1.20
2023-02-04T00:16:38.035Z,1.40
2023-02-04T00:19:04.412Z,1.67
2023-02-04T00:21:30.799Z,2.45
2023-02-04T00:23:57.165Z,1.17
2023-02-04T00:26:23.813Z,1.65
2023-02-04T00:28:50.128Z,1.40
2023-02-04T00:31:16.598Z,2.25
2023-02-04T00:33:43.681Z,1.15
2023-02-04T00:36:10.238Z,1.58
2023-02-04T00:38:36.573Z,1.88
2023-02-04T00:41:03.000Z,2.57
2023-02-04T00:43:30.019Z,2.05
2023-02-04T00:45:56.515Z,1.95
2023-02-04T00:48:22.929Z,1.85
2023-02-04T00:50:49.318Z,1.80
2023-02-04T00:53:15.904Z,2.07
2023-02-04T00:55:42.236Z,1.70
2023-02-04T00:58:08.590Z,2.05
2023-02-04T01:00:34.994Z,1.58
2023-02-04T01:03:01.414Z,2.53
2023-02-04T01:05:27.771Z,2.13
2023-02-04T01:07:54.389Z,2.42
2023-02-04T01:10:20.790Z,2.28
2023-02-04T01:12:47.260Z,2.13
2023-02-04T01:15:13.907Z,2.08
2023-02-04T01:17:41.554Z,1.80
2023-02-04T01:20:09.562Z,2.60
2023-02-04T01:22:35.946Z,2.00
2023-02-04T01:25:02.642Z,1.35
2023-02-04T01:27:29.026Z,2.08
2023-02-04T01:29:55.374Z,1.67
2023-02-04T01:32:21.750Z,2.00
2023-02-04T01:34:48.069Z,1.55
2023-02-04T01:37:14.676Z,2.10
2023-02-04T01:39:41.006Z,1.60
2023-02-04T01:42:07.651Z,2.50
2023-02-04T01:44:34.095Z,1.80
2023-02-04T01:47:00.563Z,1.65
2023-02-04T01:49:27.066Z,2.10
2023-02-04T01:51:53.523Z,2.15
2023-02-04T01:54:22.450Z,2.33
2023-02-04T01:56:51.460Z,1.92
2023-02-04T01:59:19.146Z,2.45
2023-02-04T02:01:51.470Z,1.55
2023-02-04T02:04:30.751Z,2.80
2023-02-04T02:07:00.704Z,1.97
2023-02-04T02:09:27.792Z,1.60
2023-02-04T02:11:54.915Z,2.25
2023-02-04T02:14:22.490Z,1.80
2023-02-04T02:16:48.918Z,3.42
2023-02-04T02:19:24.654Z,2.07
2023-02-04T02:22:21.609Z,1.85
2023-02-04T02:24:47.985Z,2.20
2023-02-04T02:27:14.357Z,2.90
2023-02-04T02:29:42.616Z,2.47
2023-02-04T02:32:10.854Z,2.00
2023-02-04T02:34:39.300Z,2.03
2023-02-04T02:37:07.045Z,2.55
2023-02-04T02:39:33.421Z,2.63
2023-02-04T02:41:59.889Z,1.88
2023-02-04T02:44:26.926Z,2.03
2023-02-04T02:46:54.366Z,2.53
2023-02-04T02:49:21.170Z,1.95
2023-02-04T02:51:48.648Z,1.83
2023-02-04T02:54:26.587Z,2.40
2023-02-04T02:56:54.170Z,2.20
2023-02-04T02:59:20.817Z,2.92
2023-02-04T03:01:50.201Z,2.35
2023-02-04T03:04:18.605Z,3.03
2023-02-04T03:06:45.302Z,2.33
2023-02-04T03:09:12.111Z,2.40
2023-02-04T03:11:38.443Z,2.10
2023-02-04T03:14:05.700Z,2.55
2023-02-04T03:16:34.521Z,1.65
2023-02-04T03:19:01.645Z,3.20
2023-02-04T03:21:28.922Z,2.00
2023-02-04T03:23:56.702Z,2.55
2023-02-04T03:26:24.720Z,2.20
2023-02-04T03:28:51.274Z,2.33
2023-02-04T03:31:17.924Z,2.15
2023-02-04T03:33:44.613Z,3.27
2023-02-04T03:36:11.076Z,2.00
2023-02-04T03:38:37.495Z,2.08
2023-02-04T03:41:03.922Z,1.88
2023-02-04T03:43:31.990Z,1.95
2023-02-04T03:46:00.214Z,3.17
2023-02-04T03:48:26.589Z,2.05
2023-02-04T03:50:52.966Z,2.17
2023-02-04T03:53:19.563Z,2.03
2023-02-04T03:55:45.883Z,2.50
2023-02-04T03:58:12.192Z,2.77
2023-02-04T04:00:38.721Z,1.85
2023-02-04T04:03:05.122Z,2.38
2023-02-04T04:05:32.430Z,2.38
2023-02-04T04:07:59.354Z,1.95
2023-02-04T04:10:25.779Z,2.20
2023-02-04T04:12:52.099Z,2.50
2023-02-04T04:15:18.454Z,2.65
2023-02-04T04:17:44.836Z,1.50
2023-02-04T04:20:13.020Z,2.47
2023-02-04T04:22:39.926Z,1.50
2023-02-04T04:25:07.229Z,2.88
2023-02-04T04:27:33.569Z,2.80
2023-02-04T04:30:00.323Z,3.15
2023-02-04T04:32:26.657Z,2.15
2023-02-04T04:34:53.014Z,1.90
2023-02-04T04:37:19.403Z,1.40
2023-02-04T04:39:45.739Z,1.38
2023-02-04T04:42:12.093Z,1.88
2023-02-04T04:44:38.508Z,1.77
2023-02-04T04:47:04.839Z,2.10
2023-02-04T04:49:31.191Z,1.50
2023-02-04T04:51:57.543Z,1.00
2023-02-04T04:54:23.883Z,1.40
2023-02-04T04:56:50.214Z,1.67
2023-02-04T04:59:16.558Z,0.97
2023-02-04T05:01:42.907Z,1.98
2023-02-04T05:04:09.233Z,1.58
2023-02-04T05:06:35.705Z,2.03
2023-02-04T05:09:02.131Z,1.80
2023-02-04T05:11:28.730Z,1.87
2023-02-04T05:13:55.078Z,3.25
2023-02-04T05:16:21.469Z,2.75
2023-02-04T05:18:47.898Z,1.90
2023-02-04T05:21:14.324Z,1.95
2023-02-04T05:23:40.702Z,1.87
2023-02-04T05:26:07.256Z,2.10
2023-02-04T05:28:33.650Z,3.83
2023-02-04T05:30:59.955Z,2.38
2023-02-04T05:33:27.062Z,2.03
2023-02-04T05:35:53.418Z,1.90
2023-02-04T05:38:19.770Z,2.30
2023-02-04T05:40:46.331Z,2.10
2023-02-04T05:43:12.709Z,1.50
2023-02-04T05:45:39.168Z,1.17
2023-02-04T05:48:05.644Z,1.07
2023-02-04T05:50:32.371Z,2.40
2023-02-04T05:53:02.371Z,2.13
2023-02-04T05:55:29.599Z,2.63
2023-02-04T05:57:56.034Z,2.17
2023-02-04T06:00:22.496Z,2.50
2023-02-04T06:02:49.053Z,2.28
2023-02-04T06:05:15.490Z,2.17
2023-02-04T06:07:41.896Z,2.55
2023-02-04T06:10:09.571Z,1.63
2023-02-04T06:12:35.938Z,2.03
2023-02-04T06:15:02.574Z,2.08
2023-02-04T06:17:28.929Z,2.38
2023-02-04T06:19:55.984Z,1.55
2023-02-04T06:22:24.514Z,2.03
2023-02-04T06:24:50.834Z,1.60
2023-02-04T06:27:23.175Z,1.75
2023-02-04T06:29:51.035Z,2.80
2023-02-04T06:32:17.914Z,2.10
2023-02-04T06:34:44.734Z,1.58
2023-02-04T06:37:15.711Z,2.53
2023-02-04T06:39:43.414Z,2.35
2023-02-04T06:42:10.622Z,1.67
2023-02-04T06:44:37.200Z,2.28
2023-02-04T06:47:03.515Z,2.00
2023-02-04T06:49:29.909Z,1.60
2023-02-04T06:51:56.475Z,1.90
2023-02-04T06:54:22.843Z,1.83
2023-02-04T06:56:49.377Z,2.00
2023-02-04T06:59:15.715Z,1.92
2023-02-04T07:01:42.062Z,1.43
2023-02-04T07:04:08.455Z,1.65
2023-02-04T07:06:34.800Z,2.10
2023-02-04T07:09:01.169Z,1.35
2023-02-04T07:11:27.583Z,2.38
2023-02-04T07:13:53.933Z,1.93
2023-02-04T07:16:20.254Z,2.05
2023-02-04T07:18:46.610Z,2.58
2023-02-04T07:21:12.919Z,1.70
2023-02-04T07:23:39.250Z,1.67
2023-02-04T07:26:05.983Z,2.03
2023-02-04T07:28:32.379Z,2.65
2023-02-04T07:30:58.788Z,1.63
2023-02-04T07:33:25.446Z,1.95
2023-02-04T07:35:51.760Z,2.28
2023-02-04T07:38:18.070Z,2.10
2023-02-04T07:40:44.396Z,2.30
2023-02-04T07:43:11.082Z,2.08
2023-02-04T07:45:37.420Z,1.77
2023-02-04T07:48:03.997Z,2.40
2023-02-04T07:50:30.965Z,2.70
2023-02-04T07:52:57.564Z,3.03
2023-02-04T07:55:23.942Z,2.45
2023-02-04T07:57:50.572Z,2.67
2023-02-04T08:00:17.090Z,2.53
2023-02-04T08:02:43.778Z,2.27
2023-02-04T08:05:10.438Z,2.42
2023-02-04T08:07:36.995Z,3.10
2023-02-04T08:10:04.596Z,3.78
2023-02-04T08:12:30.934Z,3.42
2023-02-04T08:14:57.507Z,3.40
2023-02-04T08:17:24.137Z,4.65
2023-02-04T08:19:50.471Z,2.85
2023-02-04T08:22:17.257Z,2.85
2023-02-04T08:24:43.633Z,3.03
2023-02-04T08:27:11.450Z,2.77
2023-02-04T08:29:38.158Z,3.38
2023-02-04T08:32:04.701Z,3.47
2023-02-04T08:34:31.113Z,3.30
2023-02-04T08:36:57.461Z,3.17
2023-02-04T08:39:25.697Z,4.87
2023-02-04T08:41:52.046Z,3.45
2023-02-04T08:44:18.392Z,3.03
2023-02-04T08:46:44.778Z,4.03
2023-02-04T08:49:11.119Z,3.47
2023-02-04T08:51:37.679Z,4.03
2023-02-04T08:54:04.077Z,3.05
2023-02-04T08:56:31.099Z,3.50
2023-02-04T08:58:57.454Z,3.15
2023-02-04T09:01:23.915Z,3.08
2023-02-04T09:03:50.311Z,3.63
2023-02-04T09:06:16.657Z,3.38
2023-02-04T09:08:42.973Z,3.70
2023-02-04T09:11:11.223Z,3.13
2023-02-04T09:13:38.461Z,3.28
2023-02-04T09:16:05.359Z,4.03
2023-02-04T09:18:32.646Z,3.08
2023-02-04T09:20:59.249Z,4.10
2023-02-04T09:23:25.725Z,3.17
2023-02-04T09:25:52.828Z,4.43
2023-02-04T09:28:19.392Z,2.97
2023-02-04T09:30:46.925Z,3.60
2023-02-04T09:33:17.088Z,3.88
2023-02-04T09:35:43.808Z,2.80
2023-02-04T09:38:10.570Z,2.88
2023-02-04T09:40:42.908Z,2.43
2023-02-04T09:43:14.963Z,3.35
2023-02-04T09:45:41.456Z,3.38
2023-02-04T09:48:13.037Z,2.72
2023-02-04T09:50:39.571Z,4.53
2023-02-04T09:53:07.254Z,3.27
2023-02-04T09:55:37.488Z,3.10
2023-02-04T09:58:11.621Z,3.60
2023-02-04T10:00:38.031Z,2.72
2023-02-04T10:03:15.849Z,3.25
2023-02-04T10:05:43.266Z,3.17
2023-02-04T10:08:15.193Z,4.10
2023-02-04T10:10:41.925Z,3.28
2023-02-04T10:13:17.279Z,2.40
2023-02-04T10:15:44.734Z,2.70
2023-02-04T10:18:19.493Z,2.53
2023-02-04T10:20:45.874Z,2.50
2023-02-04T10:23:12.832Z,2.90
2023-02-04T10:25:39.181Z,2.65
2023-02-04T10:28:05.510Z,3.38
2023-02-04T10:30:39.298Z,2.73
2023-02-04T10:33:13.776Z,3.10
2023-02-04T10:35:51.114Z,3.05
2023-02-04T10:38:17.472Z,2.90
2023-02-04T10:40:44.393Z,1.95
2023-02-04T10:43:15.675Z,3.27
2023-02-04T10:45:47.891Z,2.80
2023-02-04T10:48:17.252Z,3.58
2023-02-04T10:50:44.641Z,2.75
2023-02-04T10:53:32.707Z,2.53
2023-02-04T10:55:59.786Z,2.70
2023-02-04T10:58:31.464Z,2.08
2023-02-04T11:00:58.423Z,2.30
2023-02-04T11:03:28.027Z,2.78
2023-02-04T11:05:57.911Z,2.20
2023-02-04T11:08:35.370Z,1.73
2023-02-04T11:11:06.439Z,2.60
2023-02-04T11:13:49.346Z,2.40
2023-02-04T11:16:18.842Z,2.35
2023-02-04T11:19:06.467Z,2.67
2023-02-04T11:21:32.889Z,2.63
2023-02-04T11:24:11.176Z,2.85
2023-02-04T11:26:42.821Z,3.03
2023-02-04T11:29:27.598Z,2.55
2023-02-04T11:32:01.026Z,2.40
2023-02-04T11:34:29.635Z,2.57
2023-02-04T11:36:58.720Z,2.53
2023-02-04T11:39:42.389Z,2.33
2023-02-04T11:42:17.895Z,2.28
2023-02-04T11:44:55.826Z,1.90
2023-02-04T11:47:25.493Z,4.00
2023-02-04T11:50:01.589Z,1.58
2023-02-04T11:52:28.137Z,2.95
2023-02-04T11:55:03.838Z,2.17
2023-02-04T11:57:39.180Z,2.00
2023-02-04T12:00:06.306Z,1.50
2023-02-04T12:02:43.991Z,2.72
2023-02-04T12:05:17.518Z,3.22
2023-02-04T12:07:44.977Z,1.70
2023-02-04T12:10:17.273Z,1.90
2023-02-04T12:12:52.473Z,2.03
2023-02-04T12:15:38.759Z,1.50
2023-02-04T12:18:12.287Z,2.22
2023-02-04T12:20:39.409Z,1.77
2023-02-04T12:23:06.041Z,2.20
2023-02-04T12:25:32.808Z,2.10
2023-02-04T12:27:59.279Z,2.65
2023-02-04T12:30:27.029Z,2.58
2023-02-04T12:32:53.467Z,1.77
2023-02-04T12:35:20.255Z,2.42
2023-02-04T12:37:46.613Z,2.40
2023-02-04T12:40:18.640Z,1.75
2023-02-04T12:42:45.170Z,2.22
2023-02-04T12:45:13.729Z,1.52
2023-02-04T12:47:40.614Z,2.08
2023-02-04T12:50:09.097Z,2.27
2023-02-04T12:52:36.911Z,2.13
2023-02-04T12:55:04.962Z,1.95
2023-02-04T12:57:32.089Z,1.67
2023-02-04T12:59:59.590Z,2.80
2023-02-04T13:02:26.375Z,1.93
2023-02-04T13:04:52.737Z,1.85
2023-02-04T13:07:19.728Z,2.47
2023-02-04T13:09:46.343Z,1.58
2023-02-04T13:12:13.514Z,2.00
2023-02-04T13:14:41.143Z,2.07
2023-02-04T13:17:08.413Z,1.73
2023-02-04T13:19:35.381Z,2.53
2023-02-04T13:22:01.768Z,2.70
2023-02-04T13:24:28.777Z,3.05
2023-02-04T13:26:55.739Z,1.77
2023-02-04T13:29:22.100Z,2.85
2023-02-04T13:31:48.968Z,2.30
2023-02-04T13:34:15.386Z,2.20
2023-02-04T13:36:43.524Z,1.67
2023-02-04T13:39:10.810Z,1.43
2023-02-04T13:41:37.491Z,2.10
2023-02-04T13:44:04.600Z,2.72
2023-02-04T13:46:31.135Z,2.22
2023-02-04T13:48:57.499Z,2.33
2023-02-04T13:51:23.940Z,2.27
2023-02-04T13:53:50.283Z,2.42
2023-02-04T13:56:16.666Z,2.35
2023-02-04T13:58:45.070Z,2.40
2023-02-04T14:01:13.170Z,3.17
2023-02-04T14:03:40.086Z,2.57
2023-02-04T14:06:06.980Z,3.00
2023-02-04T14:08:33.376Z,2.42
2023-02-04T14:11:00.085Z,1.80
2023-02-04T14:13:26.977Z,2.50
2023-02-04T14:15:53.639Z,2.60
2023-02-04T14:18:20.877Z,2.67
2023-02-04T14:20:47.297Z,3.13
2023-02-04T14:23:13.710Z,2.70
2023-02-04T14:25:40.338Z,2.53
2023-02-04T14:28:07.055Z,2.87
2023-02-04T14:30:34.035Z,2.00
2023-02-04T14:33:01.351Z,1.88
2023-02-04T14:35:28.081Z,2.75
2023-02-04T14:37:58.267Z,2.78
2023-02-04T14:40:26.329Z,2.50
2023-02-04T14:42:53.006Z,2.00
2023-02-04T14:45:19.462Z,2.33
2023-02-04T14:47:45.861Z,2.10
2023-02-04T14:50:15.558Z,2.47
2023-02-04T14:52:42.098Z,2.00
2023-02-04T14:55:11.019Z,1.95
2023-02-04T14:57:37.382Z,2.35
2023-02-04T15:00:05.189Z,2.47
2023-02-04T15:02:31.610Z,3.10
2023-02-04T15:04:58.001Z,2.27
2023-02-04T15:07:24.366Z,2.33
2023-02-04T15:09:50.866Z,1.52
2023-02-04T15:12:17.201Z,2.67
2023-02-04T15:14:43.538Z,1.92
2023-02-04T15:17:09.883Z,2.70
2023-02-04T15:19:36.265Z,2.88
2023-02-04T15:22:02.745Z,2.80
2023-02-04T15:24:30.204Z,2.55
2023-02-04T15:26:56.749Z,2.17
2023-02-04T15:29:23.187Z,2.83
2023-02-04T15:31:49.624Z,1.60
2023-02-04T15:34:16.013Z,2.65
2023-02-04T15:36:42.346Z,3.15
2023-02-04T15:39:08.735Z,3.00
2023-02-04T15:41:35.114Z,2.70
2023-02-04T15:44:01.704Z,2.20
2023-02-04T15:46:28.097Z,2.35
2023-02-04T15:48:54.463Z,2.90
2023-02-04T15:51:20.798Z,3.53
2023-02-04T15:53:47.169Z,2.10
2023-02-04T15:56:13.672Z,2.45
2023-02-04T15:58:40.108Z,2.55
2023-02-04T16:01:06.835Z,2.47
2023-02-04T16:03:33.278Z,3.25
2023-02-04T16:05:59.669Z,2.70
2023-02-04T16:08:26.032Z,2.58
2023-02-04T16:10:54.064Z,2.28
2023-02-04T16:13:21.032Z,2.40
2023-02-04T16:15:47.478Z,2.70
2023-02-04T16:18:14.239Z,2.67
2023-02-04T16:20:40.630Z,3.08
2023-02-04T16:23:08.009Z,3.20
2023-02-04T16:25:34.762Z,3.00
2023-02-04T16:28:01.427Z,3.10
2023-02-04T16:30:28.027Z,2.97
2023-02-04T16:32:54.410Z,2.85
2023-02-04T16:35:20.885Z,2.63
2023-02-04T16:37:47.252Z,2.78
2023-02-04T16:40:13.717Z,2.25
2023-02-04T16:42:40.078Z,2.47
2023-02-04T16:45:06.942Z,2.92
2023-02-04T16:47:33.252Z,2.50
2023-02-04T16:50:00.970Z,2.03
2023-02-04T16:52:31.586Z,2.47
2023-02-04T16:54:58.639Z,2.50
2023-02-04T16:57:25.011Z,3.10
2023-02-04T16:59:51.442Z,2.38
2023-02-04T17:02:17.778Z,2.70
2023-02-04T17:04:44.108Z,2.13
2023-02-04T17:07:10.461Z,3.30
2023-02-04T17:09:37.041Z,2.20
2023-02-04T17:12:03.530Z,2.70
2023-02-04T17:14:29.846Z,3.88
2023-02-04T17:16:56.309Z,3.40
2023-02-04T17:19:22.663Z,3.73
2023-02-04T17:21:49.181Z,3.28
2023-02-04T17:24:15.996Z,2.58
2023-02-04T17:26:42.442Z,3.33
2023-02-04T17:29:21.959Z,3.97
2023-02-04T17:31:48.791Z,2.90
2023-02-04T17:34:15.119Z,3.38
2023-02-04T17:36:41.600Z,3.17
2023-02-04T17:39:07.997Z,2.70
2023-02-04T17:41:34.499Z,2.70
2023-02-04T17:44:00.951Z,2.77
2023-02-04T17:46:27.595Z,2.15
2023-02-04T17:48:54.000Z,2.67
2023-02-04T17:51:20.314Z,2.25
2023-02-04T17:53:46.694Z,2.80
2023-02-04T17:56:14.498Z,2.60
2023-02-04T17:58:41.613Z,2.70
2023-02-04T18:01:12.341Z,3.28
2023-02-04T18:03:39.290Z,3.60
2023-02-04T18:06:20.958Z,2.90
2023-02-04T18:08:48.129Z,2.73
2023-02-04T18:11:27.521Z,2.92
2023-02-04T18:13:59.559Z,3.20
2023-02-04T18:16:27.438Z,3.40
2023-02-04T18:19:05.405Z,3.72
2023-02-04T18:21:31.843Z,4.60
2023-02-04T18:24:24.093Z,3.45
2023-02-04T18:26:52.859Z,3.67
2023-02-04T18:29:40.463Z,3.85
2023-02-04T18:32:29.058Z,4.25
2023-02-04T18:34:57.573Z,3.47
2023-02-04T18:37:43.241Z,3.67
2023-02-04T18:40:09.518Z,3.88
2023-02-04T18:42:46.225Z,3.38
2023-02-04T18:45:30.160Z,3.67
2023-02-04T18:47:58.875Z,3.03
2023-02-04T18:50:33.686Z,3.55
2023-02-04T18:53:21.827Z,4.10
2023-02-04T18:55:53.365Z,4.28
2023-02-04T18:58:41.508Z,3.92
2023-02-04T19:01:21.221Z,4.07
2023-02-04T19:04:00.954Z,3.47
2023-02-04T19:06:33.394Z,4.30
2023-02-04T19:09:12.203Z,3.92
2023-02-04T19:11:44.114Z,3.85
2023-02-04T19:14:44.464Z,3.77
2023-02-04T19:17:14.387Z,4.00
2023-02-04T19:19:47.393Z,4.85
2023-02-04T19:22:18.404Z,4.00
2023-02-04T19:24:45.598Z,3.88
2023-02-04T19:27:27.173Z,3.97
2023-02-04T19:29:55.225Z,3.60
2023-02-04T19:32:25.718Z,3.92
2023-02-04T19:34:53.496Z,4.85
2023-02-04T19:37:26.628Z,4.95
2023-02-04T19:39:55.252Z,4.97
2023-02-04T19:42:33.747Z,6.68
2023-02-04T19:45:25.410Z,6.20
2023-02-04T19:47:56.108Z,6.47
2023-02-04T19:50:32.602Z,5.75
2023-02-04T19:53:09.177Z,5.20
2023-02-04T19:55:46.366Z,5.03
2023-02-04T19:58:21.714Z,6.05
2023-02-04T20:01:01.803Z,5.13
2023-02-04T20:03:45.985Z,6.38
2023-02-04T20:06:26.426Z,5.47
2023-02-04T20:09:13.714Z,6.03
2023-02-04T20:11:45.302Z,5.10
2023-02-04T20:14:14.402Z,5.00
2023-02-04T20:16:47.020Z,4.97
2023-02-04T20:19:22.083Z,5.33
2023-02-04T20:22:20.988Z,6.28
2023-02-04T20:24:57.354Z,5.57
2023-02-04T20:27:35.154Z,5.78
2023-02-04T20:30:25.472Z,5.65
2023-02-04T20:32:57.395Z,5.40
2023-02-04T20:35:23.646Z,4.93
2023-02-04T20:37:53.566Z,5.38
2023-02-04T20:40:21.330Z,5.78
2023-02-04T20:42:50.197Z,4.90
2023-02-04T20:45:32.776Z,5.13
2023-02-04T20:48:17.477Z,4.80
2023-02-04T20:50:55.214Z,6.38
2023-02-04T20:53:31.181Z,6.60
2023-02-04T20:56:03.957Z,5.40
2023-02-04T20:58:36.529Z,5.43
2023-02-04T21:01:03.558Z,5.60
2023-02-04T21:03:35.841Z,5.75
2023-02-04T21:06:12.200Z,5.45
2023-02-04T21:08:47.205Z,5.28
2023-02-04T21:11:13.548Z,5.57
2023-02-04T21:13:40.986Z,5.03
2023-02-04T21:16:08.742Z,5.32
2023-02-04T21:18:35.871Z,5.63
2023-02-04T21:21:07.802Z,5.18
2023-02-04T21:23:38.645Z,4.50
2023-02-04T21:26:06.322Z,5.65
2023-02-04T21:28:33.466Z,4.55
2023-02-04T21:31:00.447Z,4.47
2023-02-04T21:33:26.914Z,5.63
2023-02-04T21:35:53.220Z,5.77
2023-02-04T21:38:19.562Z,6.40
2023-02-04T21:40:45.897Z,6.28
2023-02-04T21:43:12.213Z,6.70
2023-02-04T21:45:39.599Z,5.80
2023-02-04T21:48:07.868Z,6.57
2023-02-04T21:50:35.325Z,6.32
2023-02-04T21:53:01.729Z,6.40
2023-02-04T21:55:28.974Z,7.32
2023-02-04T21:57:55.358Z,6.38
2023-02-04T22:00:23.942Z,5.83
2023-02-04T22:02:51.969Z,5.70
2023-02-04T22:05:19.602Z,6.47
2023-02-04T22:07:46.098Z,6.60
2023-02-04T22:10:18.585Z,5.97
2023-02-04T22:12:52.254Z,6.20
2023-02-04T22:15:18.863Z,7.68
2023-02-04T22:17:45.415Z,6.22
2023-02-04T22:20:14.884Z,6.18
2023-02-04T22:22:43.371Z,8.52
2023-02-04T22:25:10.408Z,8.77
2023-02-04T22:27:36.830Z,8.13
2023-02-04T22:30:07.725Z,8.90
2023-02-04T22:32:34.196Z,8.27
2023-02-04T22:35:00.604Z,8.70
2023-02-04T22:37:27.094Z,8.97
2023-02-04T22:39:53.441Z,9.05
2023-02-04T22:42:19.890Z,9.15
2023-02-04T22:44:46.246Z,8.93
2023-02-04T22:47:12.878Z,8.38
2023-02-04T22:49:39.210Z,9.80
2023-02-04T22:52:05.815Z,9.32
2023-02-04T22:54:32.747Z,8.10
2023-02-04T22:57:00.341Z,8.25
2023-02-04T22:59:27.694Z,7.70
2023-02-04T23:01:55.153Z,7.80
2023-02-04T23:04:22.279Z,8.40
2023-02-04T23:06:49.250Z,8.02
2023-02-04T23:09:16.024Z,8.20
2023-02-04T23:11:42.594Z,7.15
2023-02-04T23:14:08.946Z,7.90
2023-02-04T23:16:35.313Z,6.72
2023-02-04T23:19:01.754Z,7.07
2023-02-04T23:21:28.343Z,6.88
2023-02-04T23:23:54.780Z,6.40
2023-02-04T23:26:21.570Z,8.40
2023-02-04T23:28:48.049Z,7.75
2023-02-04T23:31:14.439Z,7.05
2023-02-04T23:33:41.061Z,6.65
2023-02-04T23:36:07.942Z,7.30
2023-02-04T23:38:34.258Z,7.27
2023-02-04T23:41:00.722Z,9.95
2023-02-04T23:43:27.767Z,7.88
2023-02-04T23:45:56.712Z,8.50
2023-02-04T23:48:24.237Z,9.38
2023-02-04T23:50:51.015Z,8.80
2023-02-04T23:53:19.239Z,8.75
2023-02-04T23:55:46.134Z,8.88
2023-02-04T23:58:12.455Z,8.93
